createdAt,value
2017-06-15T00:00:55.469Z,14.35
2017-06-15T00:10:55.468Z,14.16
2017-06-15T00:20:55.378Z,14.1
2017-06-15T00:30:55.465Z,13.99
2017-06-15T00:40:55.453Z,13.98
2017-06-15T00:50:55.356Z,13.89
2017-06-15T01:00:55.455Z,13.95
2017-06-15T01:10:55.392Z,13.83
2017-06-15T01:20:55.480Z,13.65
2017-06-15T01:30:55.416Z,13.7
2017-06-15T01:40:55.371Z,13.7
2017-06-15T01:50:55.468Z,13.74
2017-06-15T02:00:55.402Z,13.87
2017-06-15T02:10:55.371Z,13.74
2017-06-15T02:20:55.452Z,13.7
2017-06-15T02:30:55.384Z,13.59
2017-06-15T02:40:55.473Z,13.69
2017-06-15T02:50:55.443Z,13.71
2017-06-15T03:00:55.409Z,13.71
2017-06-15T03:10:55.455Z,13.76
2017-06-15T03:20:55.355Z,13.73
2017-06-15T03:30:55.356Z,13.96
2017-06-15T03:40:55.347Z,14.14
2017-06-15T03:50:55.352Z,14.47
2017-06-15T04:00:55.346Z,14.87
2017-06-15T04:10:55.329Z,15.3
2017-06-15T04:20:55.337Z,15.49
2017-06-15T04:30:55.340Z,15.74
2017-06-15T04:40:55.354Z,16.07
2017-06-15T04:50:55.343Z,16.67
2017-06-15T05:00:55.342Z,17.71
2017-06-15T05:10:55.339Z,19.42
2017-06-15T05:20:55.340Z,21.63
2017-06-15T05:30:55.396Z,20.96
2017-06-15T05:40:55.345Z,20.93
2017-06-15T05:50:55.356Z,22.83
2017-06-15T06:00:55.383Z,26.72
2017-06-15T06:10:55.342Z,29.2
2017-06-15T06:20:55.368Z,30.09
2017-06-15T06:30:55.375Z,31.82
2017-06-15T06:40:55.390Z,33.58
2017-06-15T06:50:55.377Z,32.32
2017-06-15T07:00:55.384Z,33.73
2017-06-15T07:10:55.396Z,33.48
2017-06-15T07:20:55.385Z,33.29
2017-06-15T07:30:55.404Z,33.76
2017-06-15T07:40:55.410Z,34.36
2017-06-15T07:50:55.429Z,35.91
2017-06-15T08:00:55.399Z,38.11
2017-06-15T08:10:55.413Z,37.02
2017-06-15T08:20:55.399Z,37.89
2017-06-15T08:30:55.433Z,37.1
2017-06-15T08:40:55.425Z,38.7
2017-06-15T08:50:55.436Z,38.78
2017-06-15T09:00:55.426Z,39.02
2017-06-15T09:10:55.454Z,38.8
2017-06-15T09:20:55.460Z,34.72
2017-06-15T09:30:55.456Z,32.69
2017-06-15T09:40:55.477Z,30.64
2017-06-15T09:50:55.452Z,30.33
2017-06-15T10:00:55.481Z,30.23
2017-06-15T10:10:55.462Z,30.5
2017-06-15T10:20:55.426Z,30.98
2017-06-15T10:30:55.556Z,32.17
2017-06-15T10:40:55.451Z,32.7
2017-06-15T10:50:55.510Z,32.52
2017-06-15T11:00:55.503Z,32.69
2017-06-15T11:10:55.477Z,32.07
2017-06-15T11:20:55.466Z,32.25
2017-06-15T11:30:55.471Z,32.06
2017-06-15T11:40:55.569Z,31.3
2017-06-15T11:50:55.508Z,31.33
2017-06-15T12:00:55.566Z,31.08
2017-06-15T12:10:55.550Z,31.05
2017-06-15T12:20:55.498Z,31.04
2017-06-15T12:30:55.537Z,31.84
2017-06-15T12:40:55.508Z,32.11
2017-06-15T12:50:55.667Z,32.05
2017-06-15T13:00:55.557Z,32.55
2017-06-15T13:10:55.595Z,32.92
2017-06-15T13:20:55.578Z,32.76
2017-06-15T13:30:55.532Z,32.44
2017-06-15T13:40:55.537Z,32.37
2017-06-15T13:50:55.602Z,32.18
2017-06-15T14:00:55.570Z,32.2
2017-06-15T14:10:55.651Z,31.91
2017-06-15T14:20:55.515Z,31.26
2017-06-15T14:30:55.589Z,31.06
2017-06-15T14:40:55.557Z,30.71
2017-06-15T14:50:55.553Z,29.94
2017-06-15T15:00:55.583Z,29.29
2017-06-15T15:10:55.559Z,27.89
2017-06-15T15:20:55.585Z,25.68
2017-06-15T15:30:55.563Z,24.63
2017-06-15T15:40:55.537Z,24.19
2017-06-15T15:50:55.551Z,24.04
2017-06-15T16:00:55.569Z,23.94
2017-06-15T16:10:55.569Z,23.61
2017-06-15T16:20:55.540Z,23.79
2017-06-15T16:30:55.572Z,21.29
2017-06-15T16:40:55.556Z,20.13
2017-06-15T16:50:57.067Z,19.73
2017-06-15T17:00:55.591Z,19.91
2017-06-15T17:10:55.556Z,20.3
2017-06-15T17:20:55.547Z,20.79
2017-06-15T17:30:55.534Z,20.95
2017-06-15T17:40:55.556Z,21.34
2017-06-15T17:50:55.549Z,21.79
2017-06-15T18:00:55.604Z,22.06
2017-06-15T18:10:55.566Z,22.52
2017-06-15T18:20:55.554Z,23.11
2017-06-15T18:30:55.591Z,23.34
2017-06-15T18:40:55.566Z,23.35
2017-06-15T18:50:55.594Z,23.07
2017-06-15T19:00:55.648Z,22.62
2017-06-15T19:10:55.601Z,22.23
2017-06-15T19:20:55.588Z,21.75
2017-06-15T19:30:55.560Z,20.59
2017-06-15T19:40:55.579Z,20
2017-06-15T19:50:55.591Z,19.31
2017-06-15T20:00:55.582Z,18.86
2017-06-15T20:10:55.575Z,18.4
2017-06-15T20:20:55.578Z,17.95
2017-06-15T20:30:55.563Z,17.57
2017-06-15T20:40:55.613Z,17.4
2017-06-15T20:50:55.578Z,17.08
2017-06-15T21:00:55.649Z,16.95
2017-06-15T21:10:55.607Z,16.85
2017-06-15T21:20:55.597Z,16.86
2017-06-15T21:30:55.578Z,16.65
2017-06-15T21:40:55.573Z,16.33
2017-06-15T21:50:55.578Z,16.15
2017-06-15T22:00:55.597Z,16
2017-06-15T22:10:55.592Z,15.94
2017-06-15T22:20:55.559Z,15.94
2017-06-15T22:30:55.575Z,15.84
2017-06-15T22:40:55.569Z,15.72
2017-06-15T22:50:55.628Z,15.68
2017-06-15T23:00:55.559Z,15.76
2017-06-15T23:10:55.594Z,15.75
2017-06-15T23:20:55.566Z,16.18
2017-06-15T23:30:55.559Z,16.4
2017-06-15T23:40:55.562Z,16.33
2017-06-15T23:50:55.579Z,16.55
